This is the latest recevied weather packets stored in our database for station/object p43g-13. If no packets are shown the sender has not sent any weather packets the latest 10 day(s).
| Time | Temp. | Humidity | Pressure | Rain* | Wind** | Luminosity | Snow |
|---|---|---|---|---|---|---|---|
| 1787945446 | 30.56° C | 78% | 1009.6 hPa | 0 mm | - | 753 W/m² | - |
| 1787945146 | 30.56° C | 78% | 1009.8 hPa | 0 mm | - | 695 W/m² | - |
| 1787944833 | 30.56° C | 78% | 1009.9 hPa | 0 mm | - | 175 W/m² | - |
| 1787944533 | 30.56° C | 78% | 1009.7 hPa | 0 mm | - | 526 W/m² | - |
| 1787944233 | 30.56° C | 80% | 1009.7 hPa | 0.51 mm | - | 501 W/m² | - |
| 1787943933 | 30.56° C | 80% | 1010 hPa | 3.81 mm | - | 891 W/m² | - |
| 1787943634 | 30.56° C | 80% | 1010 hPa | 3.81 mm | - | 926 W/m² | - |
| 1787943333 | 30.56° C | 80% | 1010 hPa | 3.81 mm | - | 902 W/m² | - |
| 1787943032 | 30° C | 82% | 1010.2 hPa | 3.81 mm | - | 771 W/m² | - |
| 1787942720 | 28.89° C | 86% | 1010.3 hPa | 3.81 mm | - | 910 W/m² | - |
| 1787942421 | 28.89° C | 90% | 1010.3 hPa | 3.81 mm | - | 865 W/m² | - |
| 1787942121 | 28.33° C | 90% | 1010.3 hPa | 3.81 mm | - | 805 W/m² | - |
| 1787941809 | 27.78° C | 91% | 1010.7 hPa | 3.81 mm | - | 657 W/m² | - |
| 1787941509 | 27.22° C | 91% | 1010.5 hPa | 3.81 mm | - | 520 W/m² | - |
| 1787941209 | 27.22° C | 92% | 1011 hPa | 3.81 mm | - | 536 W/m² | - |
| 1787940909 | 27.78° C | 91% | 1011.2 hPa | 3.81 mm | - | 263 W/m² | - |
| 1787940609 | 27.78° C | 90% | 1011.2 hPa | 2.79 mm | - | 176 W/m² | - |
| 1787940309 | 30° C | 82% | 1011.2 hPa | 0 mm | - | 111 W/m² | - |
| 1787940009 | 30.56° C | 77% | 1011.2 hPa | 0 mm | - | 275 W/m² | - |
| 1787939710 | 30.56° C | 77% | 1011 hPa | 0 mm | - | 331 W/m² | - |
| 1787939408 | 30° C | 78% | 1011.1 hPa | 0 mm | - | 351 W/m² | - |
| 1787939108 | 30° C | 79% | 1011 hPa | 0 mm | - | 200 W/m² | - |
| 1787938809 | 30.56° C | 79% | 1011.1 hPa | 0 mm | - | 176 W/m² | - |
| 1787938509 | 30.56° C | 77% | 1011.2 hPa | 0 mm | - | 187 W/m² | - |
| 1787938209 | 30.56° C | 76% | 1011.2 hPa | 0 mm | - | 244 W/m² | - |
* Rain latest hour (hover to see other rain measurements)
** Current wind speed in m/s (hover to see current wind gust speed)